createdAt,value
2017-08-21T00:01:59.479Z,65.00
2017-08-21T00:04:27.772Z,64.80
2017-08-21T00:06:56.020Z,65.00
2017-08-21T00:09:23.505Z,64.90
2017-08-21T00:11:51.015Z,65.10
2017-08-21T00:14:18.499Z,65.00
2017-08-21T00:16:46.772Z,65.20
2017-08-21T00:19:15.048Z,65.00
2017-08-21T00:21:43.302Z,65.70
2017-08-21T00:24:11.905Z,65.40
2017-08-21T00:26:40.938Z,65.40
2017-08-21T00:29:08.497Z,65.40
2017-08-21T00:31:35.987Z,65.40
2017-08-21T00:34:03.535Z,65.40
2017-08-21T00:36:31.011Z,65.30
2017-08-21T00:38:58.530Z,65.30
2017-08-21T00:41:26.035Z,65.30
2017-08-21T00:43:53.539Z,65.40
2017-08-21T00:46:21.020Z,65.30
2017-08-21T00:48:48.534Z,65.40
2017-08-21T00:51:16.045Z,65.40
2017-08-21T00:53:43.539Z,65.40
2017-08-21T00:56:11.788Z,65.30
2017-08-21T00:58:39.315Z,65.20
2017-08-21T01:01:06.804Z,65.40
2017-08-21T01:03:34.282Z,65.40
2017-08-21T01:06:01.800Z,65.50
2017-08-21T01:08:29.287Z,65.40
2017-08-21T01:10:57.579Z,65.50
2017-08-21T01:13:25.076Z,65.50
2017-08-21T01:15:52.567Z,65.50
2017-08-21T01:18:20.832Z,66.20
2017-08-21T01:20:48.320Z,65.40
2017-08-21T01:23:15.835Z,65.40
2017-08-21T01:25:43.372Z,65.60
2017-08-21T01:28:10.856Z,65.60
2017-08-21T01:30:38.344Z,65.60
2017-08-21T01:33:05.877Z,65.70
2017-08-21T01:35:33.355Z,65.90
2017-08-21T01:38:01.605Z,66.20
2017-08-21T01:40:29.124Z,66.10
2017-08-21T01:42:56.611Z,66.30
2017-08-21T01:45:24.095Z,66.30
2017-08-21T01:47:52.387Z,66.30
2017-08-21T01:50:19.871Z,66.30
2017-08-21T01:52:47.350Z,66.20
2017-08-21T01:55:14.877Z,66.30
2017-08-21T01:57:42.361Z,66.20
2017-08-21T02:00:09.844Z,66.20
2017-08-21T02:02:38.128Z,66.30
2017-08-21T02:05:05.624Z,66.30
2017-08-21T02:07:33.155Z,66.50
2017-08-21T02:10:00.642Z,66.60
2017-08-21T02:12:28.131Z,66.80
2017-08-21T02:14:55.650Z,66.80
2017-08-21T02:17:23.137Z,67.00
2017-08-21T02:19:50.621Z,66.90
2017-08-21T02:22:18.904Z,67.10
2017-08-21T02:24:46.391Z,67.10
2017-08-21T02:27:13.900Z,67.20
2017-08-21T02:29:42.191Z,67.40
2017-08-21T02:32:09.679Z,67.50
2017-08-21T02:34:37.161Z,67.40
2017-08-21T02:37:04.675Z,67.40
2017-08-21T02:39:32.198Z,67.40
2017-08-21T02:41:59.725Z,67.20
2017-08-21T02:44:27.265Z,67.20
2017-08-21T02:46:54.750Z,67.20
2017-08-21T02:49:22.236Z,67.20
2017-08-21T02:51:50.525Z,67.20
2017-08-21T02:54:18.016Z,67.20
2017-08-21T02:56:45.576Z,67.20
2017-08-21T02:59:13.064Z,67.20
2017-08-21T03:01:41.320Z,67.40
2017-08-21T03:04:08.838Z,67.40
2017-08-21T03:06:36.350Z,67.50
2017-08-21T03:09:03.835Z,67.50
2017-08-21T03:11:31.354Z,67.50
2017-08-21T03:13:58.872Z,67.50
2017-08-21T03:16:26.355Z,67.70
2017-08-21T03:18:53.870Z,67.70
2017-08-21T03:21:21.400Z,67.80
2017-08-21T03:23:48.878Z,67.80
2017-08-21T03:26:16.366Z,67.80
2017-08-21T03:28:43.892Z,67.90
2017-08-21T03:31:11.375Z,68.00
2017-08-21T03:33:38.862Z,68.00
2017-08-21T03:36:06.406Z,68.20
2017-08-21T03:38:33.891Z,68.10
2017-08-21T03:41:01.375Z,68.20
2017-08-21T03:43:28.892Z,68.20
2017-08-21T03:45:56.405Z,68.40
2017-08-21T03:48:23.892Z,68.40
2017-08-21T03:50:51.400Z,68.30
2017-08-21T03:53:18.896Z,68.20
2017-08-21T03:55:46.419Z,68.30
2017-08-21T03:58:13.916Z,68.30
2017-08-21T04:00:41.428Z,68.20
2017-08-21T04:03:08.937Z,68.20
2017-08-21T04:05:36.429Z,68.30
2017-08-21T04:08:04.704Z,68.40
2017-08-21T04:10:32.962Z,68.40
2017-08-21T04:13:00.459Z,68.40
2017-08-21T04:15:27.949Z,68.40
2017-08-21T04:17:55.464Z,68.50
2017-08-21T04:20:22.960Z,68.60
2017-08-21T04:22:50.460Z,68.70
2017-08-21T04:25:18.729Z,68.70
2017-08-21T04:27:46.225Z,68.70
2017-08-21T04:30:13.733Z,68.70
2017-08-21T04:32:41.228Z,68.80
2017-08-21T04:35:08.737Z,68.80
2017-08-21T04:37:36.233Z,68.70
2017-08-21T04:40:03.755Z,68.80
2017-08-21T04:42:31.249Z,68.90
2017-08-21T04:44:58.741Z,69.00
2017-08-21T04:47:26.249Z,69.10
2017-08-21T04:49:54.512Z,69.20
2017-08-21T04:52:22.787Z,69.10
2017-08-21T04:54:51.048Z,69.70
2017-08-21T04:57:18.562Z,69.10
2017-08-21T04:59:46.065Z,69.10
2017-08-21T05:02:13.552Z,69.20
2017-08-21T05:04:41.066Z,69.30
2017-08-21T05:07:08.562Z,69.30
2017-08-21T05:09:36.836Z,69.40
2017-08-21T05:12:05.098Z,69.30
2017-08-21T05:14:33.379Z,69.30
2017-08-21T05:17:01.645Z,69.40
2017-08-21T05:19:29.939Z,69.30
2017-08-21T05:21:57.427Z,69.30
2017-08-21T05:24:24.929Z,69.20
2017-08-21T05:26:52.462Z,69.30
2017-08-21T05:29:19.957Z,69.30
2017-08-21T05:31:48.237Z,69.30
2017-08-21T05:34:15.731Z,69.30
2017-08-21T05:36:43.241Z,69.50
2017-08-21T05:39:11.504Z,69.50
2017-08-21T05:41:38.990Z,69.50
2017-08-21T05:44:06.495Z,69.70
2017-08-21T05:46:33.985Z,69.50
2017-08-21T05:49:02.260Z,69.60
2017-08-21T05:51:30.536Z,69.50
2017-08-21T05:53:58.029Z,69.60
2017-08-21T05:56:25.536Z,69.60
2017-08-21T05:58:53.027Z,69.50
2017-08-21T06:01:20.544Z,69.50
2017-08-21T06:03:48.036Z,69.50
2017-08-21T06:06:15.533Z,69.50
2017-08-21T06:08:43.032Z,69.50
2017-08-21T06:11:10.533Z,69.40
2017-08-21T06:13:38.045Z,69.50
2017-08-21T06:16:05.539Z,69.30
2017-08-21T06:18:33.045Z,69.30
2017-08-21T06:21:00.533Z,69.20
2017-08-21T06:23:28.026Z,69.30
2017-08-21T06:25:55.538Z,69.30
2017-08-21T06:28:23.792Z,68.70
2017-08-21T06:30:51.301Z,68.70
2017-08-21T06:33:18.788Z,68.80
2017-08-21T06:35:46.292Z,68.40
2017-08-21T06:38:13.791Z,68.10
2017-08-21T06:40:41.285Z,68.20
2017-08-21T06:43:08.792Z,68.20
2017-08-21T06:45:36.293Z,68.40
2017-08-21T06:48:03.801Z,68.40
2017-08-21T06:50:31.310Z,68.40
2017-08-21T06:52:58.837Z,68.60
2017-08-21T06:55:26.323Z,68.80
2017-08-21T06:57:53.818Z,68.80
2017-08-21T07:00:21.324Z,68.80
2017-08-21T07:02:48.812Z,68.70
2017-08-21T07:05:16.326Z,68.70
2017-08-21T07:07:43.820Z,68.50
2017-08-21T07:10:11.340Z,68.60
2017-08-21T07:12:38.831Z,68.40
2017-08-21T07:15:06.327Z,68.40
2017-08-21T07:17:33.834Z,68.20
2017-08-21T07:20:01.331Z,68.10
2017-08-21T07:22:28.865Z,67.80
2017-08-21T07:24:56.363Z,67.30
2017-08-21T07:27:23.869Z,66.80
2017-08-21T07:29:52.133Z,65.80
2017-08-21T07:32:20.393Z,65.60
2017-08-21T07:34:47.918Z,65.60
2017-08-21T07:37:15.416Z,65.20
2017-08-21T07:39:43.693Z,65.20
2017-08-21T07:42:11.960Z,64.60
2017-08-21T07:44:39.482Z,64.60
2017-08-21T07:47:06.973Z,64.60
2017-08-21T07:49:34.467Z,64.80
2017-08-21T07:52:01.985Z,64.80
2017-08-21T07:54:29.481Z,64.50
2017-08-21T07:56:56.996Z,64.50
2017-08-21T07:59:24.489Z,64.20
2017-08-21T08:01:51.994Z,63.80
2017-08-21T08:04:19.505Z,63.70
2017-08-21T08:06:47.004Z,63.50
2017-08-21T08:09:14.509Z,63.50
2017-08-21T08:11:42.012Z,62.70
2017-08-21T08:14:09.530Z,62.60
2017-08-21T08:16:37.032Z,61.60
2017-08-21T08:19:04.525Z,61.90
2017-08-21T08:21:32.809Z,61.60
2017-08-21T08:24:00.305Z,61.60
2017-08-21T08:26:27.816Z,61.30
2017-08-21T08:28:55.300Z,60.80
2017-08-21T08:31:22.799Z,60.70
2017-08-21T08:33:50.304Z,60.90
2017-08-21T08:36:17.804Z,60.70
2017-08-21T08:38:45.327Z,60.50
2017-08-21T08:41:12.826Z,60.40
2017-08-21T08:43:40.339Z,60.70
2017-08-21T08:46:07.849Z,60.70
2017-08-21T08:48:35.342Z,60.20
2017-08-21T08:51:02.869Z,60.20
2017-08-21T08:53:30.366Z,60.10
2017-08-21T08:55:57.866Z,60.90
2017-08-21T08:58:25.365Z,60.40
2017-08-21T09:00:52.861Z,60.00
2017-08-21T09:03:20.375Z,59.90
2017-08-21T09:05:47.872Z,60.30
2017-08-21T09:08:15.361Z,60.50
2017-08-21T09:10:42.870Z,60.60
2017-08-21T09:13:10.357Z,60.80
2017-08-21T09:15:37.877Z,61.20
2017-08-21T09:18:05.370Z,61.30
2017-08-21T09:20:32.894Z,61.60
2017-08-21T09:23:00.386Z,61.30
2017-08-21T09:25:27.885Z,61.20
2017-08-21T09:27:55.397Z,60.10
2017-08-21T09:30:22.892Z,60.20
2017-08-21T09:32:51.171Z,61.00
2017-08-21T09:35:18.664Z,60.90
2017-08-21T09:37:46.177Z,61.20
2017-08-21T09:40:14.441Z,61.20
2017-08-21T09:42:42.705Z,61.20
2017-08-21T09:45:10.214Z,61.20
2017-08-21T09:47:37.709Z,60.90
2017-08-21T09:50:05.223Z,60.90
2017-08-21T09:52:32.742Z,60.80
2017-08-21T09:55:01.020Z,61.10
2017-08-21T09:57:29.281Z,60.50
2017-08-21T09:59:56.814Z,60.50
2017-08-21T10:02:24.309Z,60.10
2017-08-21T10:04:52.572Z,59.20
2017-08-21T10:07:20.091Z,59.20
2017-08-21T10:09:47.588Z,58.80
2017-08-21T10:12:15.101Z,58.50
2017-08-21T10:14:42.597Z,58.20
2017-08-21T10:17:10.101Z,58.30
2017-08-21T10:19:37.594Z,58.30
2017-08-21T10:22:05.129Z,57.00
2017-08-21T10:24:32.728Z,57.80
2017-08-21T10:27:00.224Z,58.00
2017-08-21T10:29:27.732Z,57.40
2017-08-21T10:31:55.229Z,57.00
2017-08-21T10:34:22.735Z,57.30
2017-08-21T10:36:50.226Z,57.40
2017-08-21T10:39:17.738Z,56.40
2017-08-21T10:41:45.242Z,56.50
2017-08-21T10:44:12.758Z,56.00
2017-08-21T10:46:40.257Z,56.00
2017-08-21T10:49:08.554Z,55.80
2017-08-21T10:51:36.058Z,55.80
2017-08-21T10:54:03.556Z,55.70
2017-08-21T10:56:31.829Z,55.10
2017-08-21T10:59:00.098Z,55.00
2017-08-21T11:01:28.381Z,55.30
2017-08-21T11:03:56.645Z,55.60
2017-08-21T11:06:24.920Z,55.80
2017-08-21T11:08:53.181Z,55.60
2017-08-21T11:11:20.674Z,55.60
2017-08-21T11:13:48.182Z,55.40
2017-08-21T11:16:15.682Z,55.60
2017-08-21T11:18:43.203Z,55.10
2017-08-21T11:21:10.704Z,54.80
2017-08-21T11:24:06.949Z,55.10
2017-08-21T11:26:34.442Z,55.30
2017-08-21T11:29:01.967Z,55.10
2017-08-21T11:31:29.474Z,55.20
2017-08-21T11:33:56.988Z,54.90
2017-08-21T11:36:24.489Z,54.80
2017-08-21T11:38:52.002Z,54.50
2017-08-21T11:41:19.509Z,53.10
2017-08-21T11:43:47.036Z,53.40
2017-08-21T11:46:14.541Z,53.70
2017-08-21T11:48:42.032Z,52.70
2017-08-21T11:51:09.543Z,53.10
2017-08-21T11:53:37.039Z,52.70
2017-08-21T11:56:04.532Z,53.10
2017-08-21T11:58:32.038Z,53.40
2017-08-21T12:00:59.546Z,53.60
2017-08-21T12:03:27.055Z,53.80
2017-08-21T12:05:54.557Z,53.90
2017-08-21T12:08:22.069Z,53.90
2017-08-21T12:10:49.570Z,54.00
2017-08-21T12:13:17.083Z,54.00
2017-08-21T12:15:44.580Z,53.90
2017-08-21T12:18:12.078Z,53.80
2017-08-21T12:20:39.592Z,53.80
2017-08-21T12:23:07.103Z,54.10
2017-08-21T12:25:34.617Z,53.60
2017-08-21T12:28:02.107Z,53.70
2017-08-21T12:30:29.619Z,53.60
2017-08-21T12:32:57.121Z,53.50
2017-08-21T12:35:24.623Z,53.70
2017-08-21T12:37:53.118Z,53.60
2017-08-21T12:40:20.616Z,53.40
2017-08-21T12:45:22.022Z,53.20
2017-08-21T12:47:49.546Z,53.10
2017-08-21T12:50:17.048Z,53.20
2017-08-21T12:52:44.540Z,53.00
2017-08-21T12:55:12.068Z,53.00
2017-08-21T12:57:39.557Z,53.20
2017-08-21T13:00:07.074Z,53.10
2017-08-21T13:02:34.565Z,53.00
2017-08-21T13:05:02.074Z,53.10
2017-08-21T13:07:29.578Z,53.30
2017-08-21T13:09:57.100Z,53.20
2017-08-21T13:12:24.596Z,53.10
2017-08-21T13:14:52.105Z,52.50
2017-08-21T13:17:19.634Z,52.10
2017-08-21T13:19:47.133Z,51.70
2017-08-21T13:22:14.638Z,51.70
2017-08-21T13:24:42.142Z,52.00
2017-08-21T13:27:09.659Z,51.90
2017-08-21T13:29:37.157Z,51.70
2017-08-21T13:32:04.644Z,51.60
2017-08-21T13:34:32.150Z,51.80
2017-08-21T13:36:59.641Z,52.00
2017-08-21T13:39:27.153Z,52.00
2017-08-21T13:41:54.788Z,52.10
2017-08-21T13:44:22.301Z,51.70
2017-08-21T13:46:49.805Z,51.70
2017-08-21T13:49:17.300Z,51.70
2017-08-21T13:51:44.812Z,51.80
2017-08-21T13:54:12.327Z,51.80
2017-08-21T13:56:39.844Z,52.00
2017-08-21T13:59:07.333Z,51.90
2017-08-21T14:01:34.830Z,52.00
2017-08-21T14:04:02.347Z,52.00
2017-08-21T14:06:29.837Z,51.90
2017-08-21T14:08:57.351Z,52.00
2017-08-21T14:11:24.851Z,51.20
2017-08-21T14:13:52.353Z,50.80
2017-08-21T14:16:19.861Z,50.70
2017-08-21T14:18:47.355Z,50.60
2017-08-21T14:21:14.874Z,49.90
2017-08-21T14:23:42.387Z,49.60
2017-08-21T14:26:09.885Z,49.80
2017-08-21T14:28:37.432Z,49.80
2017-08-21T14:31:04.931Z,49.70
2017-08-21T14:33:32.453Z,49.50
2017-08-21T14:35:59.977Z,48.90
2017-08-21T14:38:27.492Z,47.70
2017-08-21T14:40:54.984Z,46.60
2017-08-21T14:43:22.477Z,46.70
2017-08-21T14:45:49.988Z,47.60
2017-08-21T14:48:17.485Z,47.50
2017-08-21T14:50:45.002Z,47.90
2017-08-21T14:53:12.496Z,47.80
2017-08-21T14:55:40.011Z,47.40
2017-08-21T14:58:07.516Z,46.90
2017-08-21T15:00:35.011Z,46.60
2017-08-21T15:03:02.529Z,45.00
2017-08-21T15:05:30.037Z,44.20
2017-08-21T15:07:57.548Z,44.60
2017-08-21T15:10:25.046Z,44.70
2017-08-21T15:12:52.564Z,44.60
2017-08-21T15:15:20.068Z,43.90
2017-08-21T15:17:47.570Z,44.20
2017-08-21T15:20:15.081Z,43.70
2017-08-21T15:22:42.587Z,43.50
2017-08-21T15:25:10.096Z,44.00
2017-08-21T15:27:37.589Z,43.70
2017-08-21T15:30:05.093Z,43.10
2017-08-21T15:32:32.605Z,42.80
2017-08-21T15:35:00.111Z,41.80
2017-08-21T15:37:27.623Z,41.30
2017-08-21T15:39:55.114Z,40.90
2017-08-21T15:42:22.634Z,39.60
2017-08-21T15:44:50.134Z,40.00
2017-08-21T15:47:17.643Z,40.20
2017-08-21T15:49:45.211Z,39.60
2017-08-21T15:52:12.723Z,38.50
2017-08-21T15:54:40.238Z,36.70
2017-08-21T15:57:07.782Z,35.40
2017-08-21T15:59:35.289Z,33.60
2017-08-21T16:02:02.830Z,32.20
2017-08-21T16:04:30.326Z,31.40
2017-08-21T16:06:57.883Z,30.50
2017-08-21T16:09:25.411Z,30.10
2017-08-21T16:11:52.930Z,29.20
2017-08-21T16:14:21.042Z,28.60
2017-08-21T16:16:48.865Z,28.40
2017-08-21T16:19:16.650Z,28.10
2017-08-21T16:21:44.542Z,27.60
2017-08-21T16:24:13.437Z,27.40
2017-08-21T16:26:41.508Z,27.30
2017-08-21T16:29:09.659Z,27.00
2017-08-21T16:31:37.647Z,27.60
2017-08-21T16:34:05.164Z,27.50
2017-08-21T16:36:32.665Z,27.50
2017-08-21T16:39:00.198Z,27.40
2017-08-21T16:41:27.699Z,26.80
2017-08-21T16:43:55.238Z,27.10
2017-08-21T16:46:22.733Z,28.50
2017-08-21T16:48:50.233Z,30.30
2017-08-21T16:51:17.837Z,32.40
2017-08-21T16:53:45.346Z,33.70
2017-08-21T16:56:13.106Z,35.60
2017-08-21T16:58:40.700Z,36.90
2017-08-21T17:01:08.219Z,37.80
2017-08-21T17:03:35.728Z,38.60
2017-08-21T17:06:03.261Z,39.70
2017-08-21T17:08:30.757Z,40.30
2017-08-21T17:10:58.284Z,41.10
2017-08-21T17:13:25.805Z,42.10
2017-08-21T17:15:53.305Z,43.00
2017-08-21T17:18:20.829Z,43.30
2017-08-21T17:20:48.398Z,43.40
2017-08-21T17:23:15.900Z,44.30
2017-08-21T17:25:43.434Z,45.00
2017-08-21T17:28:10.954Z,45.60
2017-08-21T17:30:38.453Z,46.20
2017-08-21T17:33:05.995Z,46.80
2017-08-21T17:35:33.527Z,47.20
2017-08-21T17:38:01.066Z,47.60
2017-08-21T17:40:28.565Z,48.10
2017-08-21T17:42:56.091Z,48.40
2017-08-21T17:45:23.620Z,49.00
2017-08-21T17:47:51.145Z,49.30
2017-08-21T17:50:18.646Z,49.40
2017-08-21T17:52:46.197Z,49.70
2017-08-21T17:55:13.722Z,50.00
2017-08-21T17:57:41.228Z,50.30
2017-08-21T18:00:08.760Z,50.60
2017-08-21T18:02:36.265Z,50.80
2017-08-21T18:05:03.811Z,51.10
2017-08-21T18:07:31.343Z,51.40
2017-08-21T18:09:58.866Z,51.50
2017-08-21T18:12:26.430Z,51.80
2017-08-21T18:14:53.937Z,52.10
2017-08-21T18:17:21.435Z,52.40
2017-08-21T18:19:48.984Z,52.70
2017-08-21T18:22:16.512Z,53.10
2017-08-21T18:24:44.078Z,53.40
2017-08-21T18:27:11.647Z,53.70
2017-08-21T18:29:39.147Z,53.90
2017-08-21T18:32:06.648Z,54.10
2017-08-21T18:34:34.173Z,54.30
2017-08-21T18:37:01.726Z,54.40
2017-08-21T18:39:29.268Z,54.60
2017-08-21T18:41:56.779Z,54.80
2017-08-21T18:44:24.326Z,55.10
2017-08-21T18:46:51.830Z,55.20
2017-08-21T18:49:19.347Z,55.50
2017-08-21T18:51:46.899Z,55.80
2017-08-21T18:54:14.472Z,55.90
2017-08-21T18:56:41.983Z,56.10
2017-08-21T18:59:09.470Z,56.10
2017-08-21T19:01:37.032Z,56.40
2017-08-21T19:04:04.520Z,56.50
2017-08-21T19:06:32.030Z,56.60
2017-08-21T19:08:59.560Z,56.80
2017-08-21T19:11:27.104Z,56.80
2017-08-21T19:13:54.765Z,57.00
2017-08-21T19:16:22.366Z,57.20
2017-08-21T19:18:49.901Z,57.40
2017-08-21T19:21:20.296Z,57.60
2017-08-21T19:23:49.356Z,57.70
2017-08-21T19:26:19.497Z,57.90
2017-08-21T19:28:47.114Z,57.90
2017-08-21T19:31:14.622Z,58.00
2017-08-21T19:33:42.180Z,58.60
2017-08-21T19:36:09.680Z,58.10
2017-08-21T19:38:37.181Z,58.20
2017-08-21T19:41:04.736Z,58.20
2017-08-21T19:43:32.232Z,58.30
2017-08-21T19:45:59.745Z,58.50
2017-08-21T19:48:27.306Z,58.40
2017-08-21T19:50:54.802Z,58.50
2017-08-21T19:53:22.305Z,58.60
2017-08-21T19:55:49.885Z,59.20
2017-08-21T19:58:17.385Z,58.70
2017-08-21T20:00:44.881Z,58.90
2017-08-21T20:03:12.414Z,58.80
2017-08-21T20:05:39.954Z,58.70
2017-08-21T20:08:07.482Z,58.80
2017-08-21T20:10:35.014Z,58.80
2017-08-21T20:13:02.556Z,58.90
2017-08-21T20:15:30.057Z,58.90
2017-08-21T20:17:57.557Z,59.00
2017-08-21T20:20:25.109Z,59.00
2017-08-21T20:22:52.604Z,59.20
2017-08-21T20:25:20.107Z,59.30
2017-08-21T20:27:47.652Z,59.30
2017-08-21T20:30:15.154Z,59.40
2017-08-21T20:32:42.656Z,59.50
2017-08-21T20:35:10.184Z,59.70
2017-08-21T20:37:37.720Z,59.80
2017-08-21T20:40:05.233Z,59.80
2017-08-21T20:42:32.765Z,59.90
2017-08-21T20:45:00.305Z,60.00
2017-08-21T20:47:27.800Z,60.10
2017-08-21T20:49:55.300Z,60.10
2017-08-21T20:52:22.828Z,60.20
2017-08-21T20:54:50.329Z,60.20
2017-08-21T20:57:17.853Z,60.20
2017-08-21T20:59:45.349Z,60.30
2017-08-21T21:02:12.885Z,60.40
2017-08-21T21:04:40.381Z,60.50
2017-08-21T21:07:07.874Z,60.40
2017-08-21T21:09:35.417Z,60.50
2017-08-21T21:12:02.927Z,60.60
2017-08-21T21:14:30.417Z,60.60
2017-08-21T21:16:57.945Z,60.70
2017-08-21T21:19:25.497Z,60.60
2017-08-21T21:21:52.996Z,60.60
2017-08-21T21:24:20.525Z,60.50
2017-08-21T21:26:48.018Z,60.50
2017-08-21T21:29:15.562Z,60.50
2017-08-21T21:31:43.062Z,60.50
2017-08-21T21:34:11.106Z,60.30
2017-08-21T21:36:38.632Z,60.20
2017-08-21T21:39:06.124Z,60.10
2017-08-21T21:41:33.729Z,60.00
2017-08-21T21:44:01.252Z,60.00
2017-08-21T21:46:28.759Z,60.00
2017-08-21T21:48:56.283Z,59.90
2017-08-21T21:51:23.780Z,59.90
2017-08-21T21:53:51.300Z,59.80
2017-08-21T21:56:18.825Z,59.70
2017-08-21T22:01:36.854Z,59.40
2017-08-21T22:04:04.368Z,59.00
2017-08-21T22:06:31.881Z,58.50
2017-08-21T22:08:59.384Z,58.20
2017-08-21T22:11:26.907Z,57.90
2017-08-21T22:13:54.447Z,57.70
2017-08-21T22:16:21.967Z,57.40
2017-08-21T22:18:49.458Z,57.20
2017-08-21T22:21:16.954Z,57.10
2017-08-21T22:23:44.472Z,57.00
2017-08-21T22:26:11.960Z,57.10
2017-08-21T22:28:39.486Z,57.40
2017-08-21T22:31:06.986Z,57.20
2017-08-21T22:33:34.480Z,57.10
2017-08-21T22:36:02.001Z,57.00
2017-08-21T22:38:29.502Z,56.90
2017-08-21T22:40:57.026Z,56.70
2017-08-21T22:43:24.529Z,56.60
2017-08-21T22:45:52.040Z,56.50
2017-08-21T22:48:19.553Z,56.40
2017-08-21T22:50:47.044Z,56.20
2017-08-21T22:53:14.564Z,56.10
2017-08-21T22:55:42.064Z,56.10
2017-08-21T22:58:09.570Z,55.90
2017-08-21T23:00:37.089Z,55.80
2017-08-21T23:03:04.580Z,55.80
2017-08-21T23:05:32.085Z,55.80
2017-08-21T23:07:59.581Z,55.70
2017-08-21T23:10:27.087Z,55.60
2017-08-21T23:12:54.600Z,55.50
2017-08-21T23:15:22.096Z,55.40
2017-08-21T23:17:49.617Z,55.40
2017-08-21T23:20:17.133Z,55.30
2017-08-21T23:22:44.620Z,55.10
2017-08-21T23:25:12.230Z,55.10
2017-08-21T23:27:39.755Z,54.80
2017-08-21T23:30:07.272Z,54.80
2017-08-21T23:32:34.780Z,54.80
2017-08-21T23:35:02.278Z,54.70
2017-08-21T23:37:29.798Z,54.70
2017-08-21T23:39:57.293Z,54.70
2017-08-21T23:42:24.805Z,54.60
2017-08-21T23:44:52.297Z,54.40
2017-08-21T23:47:19.789Z,54.40
2017-08-21T23:49:47.340Z,54.10
2017-08-21T23:52:14.832Z,54.00
2017-08-21T23:54:42.320Z,54.10
2017-08-21T23:57:09.836Z,54.20
2017-08-21T23:59:37.349Z,54.30
